Cardin, OK (74335)

12:37 AM CDT on October 31, 2014 (GMT -0500)
Sparky Electric | Change Station
CLOSE
Current Station
Personal Weather Station
Location: Miami, OK
Elevation: 797 ft
Nearby Weather Stations
Active Advisory: Freeze Warning

Elev 797 ft 36.90 °N, 94.86 °W | Updated 9 seconds ago

Clear
Clear
52.5 °F
Feels Like 52.5 °F
N
4.5
Wind Variable Wind from NW
Gusts 7.4 mph

Today
High -- | Low -- °F
--% Chance of Precip.
Yesterday
High -- | Low -- °F
Precip. -- in
7:42 AM 6:23 PM
First Quarter, 51% visible
Pressure 30.16 in
Visibility 10.0 miles
Clouds Clear
Dew Point 43 °F
Humidity 70%
Rainfall 0.00 in
Snow Depth Not available.
UV 0 out of 12
Pollen 4.20 out of 12
Air Quality Not available.
Flu Activity Not available.
METAR KJLN 310453Z AUTO 34007KT 10SM CLR 11/05 A3017 RMK AO2 SLP212 T01110050 PWINO $

More Conditions Fewer Conditions

Pressure 30.16 in
Visibility 10.0 miles
Clouds Clear
Dew Point 43 °F
Humidity 70%
Rainfall 0.00 in
Snow Depth Not available.
UV 0 out of 12
Pollen 4.20 out of 12
Air Quality Not available.
Flu Activity Not available.
METAR KJLN 310453Z AUTO 34007KT 10SM CLR 11/05 A3017 RMK AO2 SLP212 T01110050 PWINO $

More Conditions Fewer Conditions

10-Day Weather Forecast

Almanac

Astronomy

Oct. 31, 2014 Rise Set
Actual Time
Civil Twilight
Nautical Twilight
Astronomical Twilight
Moon
Length of Visible Light
Length of Day
Tomorrow will be .
, % of the Moon is Illuminated

Today's Extremes

State Highs State Lows

Community

WunderPhotos

Upload Photos

1,766,569 photos uploaded!

WunderBlogs® & News

Nearby

Air Quality

  Air Quality AQ Index Pollutant
Not available.

Snow Depth

Station Depth Elevation

Earthquake Activity

City Distance Mag. Time & Date
Minimum magnitude displayed is 2.5.

Coastal Water Temperatures

Place Temperature

Nearby Weather Stations